sensor_id;sensor_type;location;lat;lon;timestamp;temperature;humidity
27224;DHT22;14965;50.660;13.226;2023-08-21T00:00:52;19.70;99.90
27224;DHT22;14965;50.660;13.226;2023-08-21T00:03:18;19.70;99.90
27224;DHT22;14965;50.660;13.226;2023-08-21T00:05:44;19.80;99.90
27224;DHT22;14965;50.660;13.226;2023-08-21T00:08:10;19.70;99.90
27224;DHT22;14965;50.660;13.226;2023-08-21T00:10:37;19.70;99.90
27224;DHT22;14965;50.660;13.226;2023-08-21T00:13:05;19.70;99.90
27224;DHT22;14965;50.660;13.226;2023-08-21T00:15:31;19.70;99.90
27224;DHT22;14965;50.660;13.226;2023-08-21T00:17:56;19.70;99.90
27224;DHT22;14965;50.660;13.226;2023-08-21T00:20:23;19.60;99.90
27224;DHT22;14965;50.660;13.226;2023-08-21T00:22:49;19.50;99.90
27224;DHT22;14965;50.660;13.226;2023-08-21T00:25:15;19.50;99.90
27224;DHT22;14965;50.660;13.226;2023-08-21T00:27:41;19.60;99.90
27224;DHT22;14965;50.660;13.226;2023-08-21T00:30:10;19.50;99.90
27224;DHT22;14965;50.660;13.226;2023-08-21T00:32:36;19.50;99.90
27224;DHT22;14965;50.660;13.226;2023-08-21T00:35:03;19.50;99.90
27224;DHT22;14965;50.660;13.226;2023-08-21T00:37:29;19.50;99.90
27224;DHT22;14965;50.660;13.226;2023-08-21T00:39:55;19.50;99.90
27224;DHT22;14965;50.660;13.226;2023-08-21T00:42:21;19.50;99.90
27224;DHT22;14965;50.660;13.226;2023-08-21T00:44:47;19.50;99.90
27224;DHT22;14965;50.660;13.226;2023-08-21T00:47:14;19.50;99.90
27224;DHT22;14965;50.660;13.226;2023-08-21T00:49:40;19.40;99.90
27224;DHT22;14965;50.660;13.226;2023-08-21T00:52:08;19.50;99.90
27224;DHT22;14965;50.660;13.226;2023-08-21T00:54:37;19.50;99.90
27224;DHT22;14965;50.660;13.226;2023-08-21T00:57:04;19.50;99.90
27224;DHT22;14965;50.660;13.226;2023-08-21T00:59:30;19.50;99.90
27224;DHT22;14965;50.660;13.226;2023-08-21T01:01:56;19.50;99.90
27224;DHT22;14965;50.660;13.226;2023-08-21T01:04:23;19.60;99.90
27224;DHT22;14965;50.660;13.226;2023-08-21T01:06:50;19.50;99.90
27224;DHT22;14965;50.660;13.226;2023-08-21T01:09:22;19.50;99.90
27224;DHT22;14965;50.660;13.226;2023-08-21T01:22:13;19.40;99.90
27224;DHT22;14965;50.660;13.226;2023-08-21T01:24:41;19.40;99.90
27224;DHT22;14965;50.660;13.226;2023-08-21T01:27:07;19.30;99.90
27224;DHT22;14965;50.660;13.226;2023-08-21T01:29:54;19.30;99.90
27224;DHT22;14965;50.660;13.226;2023-08-21T01:32:32;19.20;99.90
27224;DHT22;14965;50.660;13.226;2023-08-21T01:35:04;19.20;99.90
27224;DHT22;14965;50.660;13.226;2023-08-21T01:37:32;19.20;99.90
27224;DHT22;14965;50.660;13.226;2023-08-21T01:40:01;19.10;99.90
27224;DHT22;14965;50.660;13.226;2023-08-21T01:42:27;19.10;99.90
27224;DHT22;14965;50.660;13.226;2023-08-21T01:44:53;19.10;99.90
27224;DHT22;14965;50.660;13.226;2023-08-21T01:47:19;19.10;99.90
27224;DHT22;14965;50.660;13.226;2023-08-21T01:49:45;19.10;99.90
27224;DHT22;14965;50.660;13.226;2023-08-21T01:52:11;19.00;99.90
27224;DHT22;14965;50.660;13.226;2023-08-21T01:54:37;19.00;99.90
27224;DHT22;14965;50.660;13.226;2023-08-21T01:57:04;19.10;99.90
27224;DHT22;14965;50.660;13.226;2023-08-21T01:59:30;19.10;99.90
27224;DHT22;14965;50.660;13.226;2023-08-21T02:01:56;19.00;99.90
27224;DHT22;14965;50.660;13.226;2023-08-21T02:04:22;19.00;99.90
27224;DHT22;14965;50.660;13.226;2023-08-21T02:06:48;19.00;99.90
27224;DHT22;14965;50.660;13.226;2023-08-21T02:09:14;19.00;99.90
27224;DHT22;14965;50.660;13.226;2023-08-21T02:11:40;19.00;99.90
27224;DHT22;14965;50.660;13.226;2023-08-21T02:14:07;19.00;99.90
27224;DHT22;14965;50.660;13.226;2023-08-21T02:16:33;18.90;99.90
27224;DHT22;14965;50.660;13.226;2023-08-21T02:18:59;18.90;99.90
27224;DHT22;14965;50.660;13.226;2023-08-21T02:21:25;18.80;99.90
27224;DHT22;14965;50.660;13.226;2023-08-21T02:23:51;18.80;99.90
27224;DHT22;14965;50.660;13.226;2023-08-21T02:26:17;18.80;99.90
27224;DHT22;14965;50.660;13.226;2023-08-21T02:28:42;18.70;99.90
27224;DHT22;14965;50.660;13.226;2023-08-21T02:31:10;18.80;99.90
27224;DHT22;14965;50.660;13.226;2023-08-21T02:33:36;18.80;99.90
27224;DHT22;14965;50.660;13.226;2023-08-21T02:36:02;18.80;99.90
27224;DHT22;14965;50.660;13.226;2023-08-21T02:38:29;18.80;99.90
27224;DHT22;14965;50.660;13.226;2023-08-21T02:40:55;18.80;99.90
27224;DHT22;14965;50.660;13.226;2023-08-21T02:43:21;18.80;99.90
27224;DHT22;14965;50.660;13.226;2023-08-21T02:45:47;18.70;99.90
27224;DHT22;14965;50.660;13.226;2023-08-21T02:48:14;18.70;99.90
27224;DHT22;14965;50.660;13.226;2023-08-21T02:50:40;18.70;99.90
27224;DHT22;14965;50.660;13.226;2023-08-21T02:53:06;18.60;99.90
27224;DHT22;14965;50.660;13.226;2023-08-21T02:55:31;18.60;99.90
27224;DHT22;14965;50.660;13.226;2023-08-21T02:57:57;18.60;99.90
27224;DHT22;14965;50.660;13.226;2023-08-21T03:00:23;18.70;99.90
27224;DHT22;14965;50.660;13.226;2023-08-21T03:02:49;18.60;99.90
27224;DHT22;14965;50.660;13.226;2023-08-21T03:05:17;18.70;99.90
27224;DHT22;14965;50.660;13.226;2023-08-21T03:07:44;18.60;99.90
27224;DHT22;14965;50.660;13.226;2023-08-21T03:10:09;18.60;99.90
27224;DHT22;14965;50.660;13.226;2023-08-21T03:12:36;18.60;99.90
27224;DHT22;14965;50.660;13.226;2023-08-21T03:15:02;18.60;99.90
27224;DHT22;14965;50.660;13.226;2023-08-21T03:17:28;18.50;99.90
27224;DHT22;14965;50.660;13.226;2023-08-21T03:19:54;18.50;99.90
27224;DHT22;14965;50.660;13.226;2023-08-21T03:22:22;18.50;99.90
27224;DHT22;14965;50.660;13.226;2023-08-21T03:24:48;18.50;99.90
27224;DHT22;14965;50.660;13.226;2023-08-21T03:27:15;18.50;99.90
27224;DHT22;14965;50.660;13.226;2023-08-21T03:29:41;18.50;99.90
27224;DHT22;14965;50.660;13.226;2023-08-21T03:32:07;18.50;99.90
27224;DHT22;14965;50.660;13.226;2023-08-21T03:34:32;18.50;99.90
27224;DHT22;14965;50.660;13.226;2023-08-21T03:36:58;18.40;99.90
27224;DHT22;14965;50.660;13.226;2023-08-21T03:39:26;18.40;99.90
27224;DHT22;14965;50.660;13.226;2023-08-21T03:41:52;18.30;99.90
27224;DHT22;14965;50.660;13.226;2023-08-21T03:44:17;18.30;99.90
27224;DHT22;14965;50.660;13.226;2023-08-21T03:46:43;18.20;99.90
27224;DHT22;14965;50.660;13.226;2023-08-21T03:49:09;18.20;99.90
27224;DHT22;14965;50.660;13.226;2023-08-21T03:51:35;18.20;99.90
27224;DHT22;14965;50.660;13.226;2023-08-21T03:54:01;18.20;99.90
27224;DHT22;14965;50.660;13.226;2023-08-21T03:56:29;18.20;99.90
27224;DHT22;14965;50.660;13.226;2023-08-21T03:58:54;18.20;99.90
27224;DHT22;14965;50.660;13.226;2023-08-21T04:01:20;18.20;99.90
27224;DHT22;14965;50.660;13.226;2023-08-21T04:03:46;18.10;99.90
27224;DHT22;14965;50.660;13.226;2023-08-21T04:06:12;18.20;99.90
27224;DHT22;14965;50.660;13.226;2023-08-21T04:08:38;18.20;99.90
27224;DHT22;14965;50.660;13.226;2023-08-21T04:11:05;18.20;99.90
27224;DHT22;14965;50.660;13.226;2023-08-21T04:13:33;18.20;99.90
27224;DHT22;14965;50.660;13.226;2023-08-21T04:15:59;18.10;99.90
27224;DHT22;14965;50.660;13.226;2023-08-21T04:18:25;18.10;99.90
27224;DHT22;14965;50.660;13.226;2023-08-21T04:20:51;18.10;99.90
27224;DHT22;14965;50.660;13.226;2023-08-21T04:23:17;18.20;99.90
27224;DHT22;14965;50.660;13.226;2023-08-21T04:25:43;18.20;99.90
27224;DHT22;14965;50.660;13.226;2023-08-21T04:28:09;18.20;99.90
27224;DHT22;14965;50.660;13.226;2023-08-21T04:30:36;18.20;99.90
27224;DHT22;14965;50.660;13.226;2023-08-21T04:33:02;18.30;99.90
27224;DHT22;14965;50.660;13.226;2023-08-21T04:35:29;18.30;99.90
27224;DHT22;14965;50.660;13.226;2023-08-21T04:37:55;18.40;99.90
27224;DHT22;14965;50.660;13.226;2023-08-21T04:40:21;18.70;99.90
27224;DHT22;14965;50.660;13.226;2023-08-21T04:42:49;18.90;99.90
27224;DHT22;14965;50.660;13.226;2023-08-21T04:45:15;19.20;99.90
27224;DHT22;14965;50.660;13.226;2023-08-21T04:47:43;19.50;99.90
27224;DHT22;14965;50.660;13.226;2023-08-21T04:50:09;19.70;99.90
27224;DHT22;14965;50.660;13.226;2023-08-21T04:52:35;20.00;99.90
27224;DHT22;14965;50.660;13.226;2023-08-21T04:55:01;20.40;99.90
27224;DHT22;14965;50.660;13.226;2023-08-21T04:57:27;20.70;99.90
27224;DHT22;14965;50.660;13.226;2023-08-21T04:59:53;20.70;99.90
27224;DHT22;14965;50.660;13.226;2023-08-21T05:02:18;20.60;99.90
27224;DHT22;14965;50.660;13.226;2023-08-21T05:04:46;20.40;99.90
27224;DHT22;14965;50.660;13.226;2023-08-21T05:07:12;20.30;99.90
27224;DHT22;14965;50.660;13.226;2023-08-21T05:09:38;20.10;99.90
27224;DHT22;14965;50.660;13.226;2023-08-21T05:12:05;20.10;99.90
27224;DHT22;14965;50.660;13.226;2023-08-21T05:14:31;20.00;99.90
27224;DHT22;14965;50.660;13.226;2023-08-21T05:16:57;20.00;99.90
27224;DHT22;14965;50.660;13.226;2023-08-21T05:19:23;20.00;99.90
27224;DHT22;14965;50.660;13.226;2023-08-21T05:21:50;20.00;99.90
27224;DHT22;14965;50.660;13.226;2023-08-21T05:24:16;20.40;99.90
27224;DHT22;14965;50.660;13.226;2023-08-21T05:26:42;21.50;99.90
27224;DHT22;14965;50.660;13.226;2023-08-21T05:29:08;22.80;99.90
27224;DHT22;14965;50.660;13.226;2023-08-21T05:31:34;24.00;99.90
27224;DHT22;14965;50.660;13.226;2023-08-21T05:34:00;25.00;99.90
27224;DHT22;14965;50.660;13.226;2023-08-21T05:36:26;25.80;99.90
27224;DHT22;14965;50.660;13.226;2023-08-21T05:38:53;26.30;99.90
27224;DHT22;14965;50.660;13.226;2023-08-21T05:41:19;26.90;99.90
27224;DHT22;14965;50.660;13.226;2023-08-21T05:43:45;27.60;99.90
27224;DHT22;14965;50.660;13.226;2023-08-21T05:46:11;28.20;99.90
27224;DHT22;14965;50.660;13.226;2023-08-21T05:48:37;28.50;99.90
27224;DHT22;14965;50.660;13.226;2023-08-21T05:51:03;28.40;99.90
27224;DHT22;14965;50.660;13.226;2023-08-21T05:53:29;28.40;99.90
27224;DHT22;14965;50.660;13.226;2023-08-21T05:55:57;28.80;99.90
27224;DHT22;14965;50.660;13.226;2023-08-21T05:58:23;29.30;99.90
27224;DHT22;14965;50.660;13.226;2023-08-21T06:00:49;29.70;99.90
27224;DHT22;14965;50.660;13.226;2023-08-21T06:03:15;30.10;99.90
27224;DHT22;14965;50.660;13.226;2023-08-21T06:05:40;30.20;99.90
27224;DHT22;14965;50.660;13.226;2023-08-21T06:08:06;30.20;99.90
27224;DHT22;14965;50.660;13.226;2023-08-21T06:10:32;30.10;99.90
27224;DHT22;14965;50.660;13.226;2023-08-21T06:13:00;29.70;99.90
27224;DHT22;14965;50.660;13.226;2023-08-21T06:15:26;29.30;99.90
27224;DHT22;14965;50.660;13.226;2023-08-21T06:17:51;29.00;99.90
27224;DHT22;14965;50.660;13.226;2023-08-21T06:20:18;28.70;99.90
27224;DHT22;14965;50.660;13.226;2023-08-21T06:22:43;28.60;99.90
27224;DHT22;14965;50.660;13.226;2023-08-21T06:25:09;28.40;99.90
27224;DHT22;14965;50.660;13.226;2023-08-21T06:27:35;28.00;99.90
27224;DHT22;14965;50.660;13.226;2023-08-21T06:30:03;27.40;99.90
27224;DHT22;14965;50.660;13.226;2023-08-21T06:32:30;26.80;99.90
27224;DHT22;14965;50.660;13.226;2023-08-21T06:34:56;26.30;99.90
27224;DHT22;14965;50.660;13.226;2023-08-21T06:37:22;25.90;99.90
27224;DHT22;14965;50.660;13.226;2023-08-21T06:39:48;25.60;99.90
27224;DHT22;14965;50.660;13.226;2023-08-21T06:42:13;25.40;99.90
27224;DHT22;14965;50.660;13.226;2023-08-21T06:44:40;25.30;99.90
27224;DHT22;14965;50.660;13.226;2023-08-21T06:47:07;25.10;99.90
27224;DHT22;14965;50.660;13.226;2023-08-21T06:49:33;25.00;99.90
27224;DHT22;14965;50.660;13.226;2023-08-21T06:51:59;24.80;99.90
27224;DHT22;14965;50.660;13.226;2023-08-21T06:54:25;24.50;99.90
27224;DHT22;14965;50.660;13.226;2023-08-21T06:56:51;24.30;99.90
27224;DHT22;14965;50.660;13.226;2023-08-21T06:59:17;24.10;99.90
27224;DHT22;14965;50.660;13.226;2023-08-21T07:01:43;24.10;99.90
27224;DHT22;14965;50.660;13.226;2023-08-21T07:04:11;24.00;99.90
27224;DHT22;14965;50.660;13.226;2023-08-21T07:06:37;24.00;99.90
27224;DHT22;14965;50.660;13.226;2023-08-21T07:09:03;24.00;99.90
27224;DHT22;14965;50.660;13.226;2023-08-21T07:11:29;24.10;99.90
27224;DHT22;14965;50.660;13.226;2023-08-21T07:13:55;24.10;99.90
27224;DHT22;14965;50.660;13.226;2023-08-21T07:16:21;24.10;99.90
27224;DHT22;14965;50.660;13.226;2023-08-21T07:18:47;24.10;99.90
27224;DHT22;14965;50.660;13.226;2023-08-21T07:21:14;24.10;99.90
27224;DHT22;14965;50.660;13.226;2023-08-21T07:23:40;24.20;99.90
27224;DHT22;14965;50.660;13.226;2023-08-21T07:26:06;24.20;99.90
27224;DHT22;14965;50.660;13.226;2023-08-21T07:28:31;24.30;99.90
27224;DHT22;14965;50.660;13.226;2023-08-21T07:30:58;24.30;99.90
27224;DHT22;14965;50.660;13.226;2023-08-21T07:33:24;24.30;99.90
27224;DHT22;14965;50.660;13.226;2023-08-21T07:35:57;24.30;99.90
27224;DHT22;14965;50.660;13.226;2023-08-21T07:38:25;24.30;99.90
27224;DHT22;14965;50.660;13.226;2023-08-21T07:40:51;24.40;99.90
27224;DHT22;14965;50.660;13.226;2023-08-21T07:43:17;24.50;99.90
27224;DHT22;14965;50.660;13.226;2023-08-21T07:45:43;24.60;99.90
27224;DHT22;14965;50.660;13.226;2023-08-21T07:48:09;24.70;99.90
27224;DHT22;14965;50.660;13.226;2023-08-21T07:50:35;24.60;99.90
27224;DHT22;14965;50.660;13.226;2023-08-21T07:53:01;24.60;99.90
27224;DHT22;14965;50.660;13.226;2023-08-21T07:55:28;24.60;99.90
27224;DHT22;14965;50.660;13.226;2023-08-21T07:57:54;24.50;99.90
27224;DHT22;14965;50.660;13.226;2023-08-21T08:00:20;24.50;99.90
27224;DHT22;14965;50.660;13.226;2023-08-21T08:02:46;24.60;99.90
27224;DHT22;14965;50.660;13.226;2023-08-21T08:05:12;24.70;99.90
27224;DHT22;14965;50.660;13.226;2023-08-21T08:07:38;24.90;99.90
27224;DHT22;14965;50.660;13.226;2023-08-21T08:10:04;25.00;99.90
27224;DHT22;14965;50.660;13.226;2023-08-21T08:12:32;25.00;99.90
27224;DHT22;14965;50.660;13.226;2023-08-21T08:14:58;25.00;99.90
27224;DHT22;14965;50.660;13.226;2023-08-21T08:17:23;25.10;99.90
27224;DHT22;14965;50.660;13.226;2023-08-21T08:19:49;25.20;99.90
27224;DHT22;14965;50.660;13.226;2023-08-21T08:22:15;25.20;99.90
27224;DHT22;14965;50.660;13.226;2023-08-21T08:24:41;25.30;99.90
27224;DHT22;14965;50.660;13.226;2023-08-21T08:27:07;25.40;99.90
27224;DHT22;14965;50.660;13.226;2023-08-21T08:29:34;25.40;99.90
27224;DHT22;14965;50.660;13.226;2023-08-21T08:32:00;25.30;99.90
27224;DHT22;14965;50.660;13.226;2023-08-21T08:34:26;25.20;99.90
27224;DHT22;14965;50.660;13.226;2023-08-21T08:36:52;25.20;99.90
27224;DHT22;14965;50.660;13.226;2023-08-21T08:39:18;25.20;99.90
27224;DHT22;14965;50.660;13.226;2023-08-21T08:41:50;25.20;99.90
27224;DHT22;14965;50.660;13.226;2023-08-21T08:44:19;25.30;99.90
27224;DHT22;14965;50.660;13.226;2023-08-21T08:46:47;25.30;99.90
27224;DHT22;14965;50.660;13.226;2023-08-21T08:49:15;25.30;99.90
27224;DHT22;14965;50.660;13.226;2023-08-21T08:51:42;25.40;99.90
27224;DHT22;14965;50.660;13.226;2023-08-21T08:54:09;25.40;99.90
27224;DHT22;14965;50.660;13.226;2023-08-21T08:56:37;25.50;99.90
27224;DHT22;14965;50.660;13.226;2023-08-21T08:59:03;25.40;99.90
27224;DHT22;14965;50.660;13.226;2023-08-21T09:01:31;25.40;99.90
27224;DHT22;14965;50.660;13.226;2023-08-21T09:03:58;25.30;99.90
27224;DHT22;14965;50.660;13.226;2023-08-21T09:06:25;25.30;99.90
27224;DHT22;14965;50.660;13.226;2023-08-21T09:08:55;25.50;99.90
27224;DHT22;14965;50.660;13.226;2023-08-21T09:11:21;25.60;99.90
27224;DHT22;14965;50.660;13.226;2023-08-21T09:13:49;25.70;99.90
27224;DHT22;14965;50.660;13.226;2023-08-21T09:16:17;25.70;99.90
27224;DHT22;14965;50.660;13.226;2023-08-21T09:18:46;25.70;99.90
27224;DHT22;14965;50.660;13.226;2023-08-21T09:21:17;25.70;99.90
27224;DHT22;14965;50.660;13.226;2023-08-21T09:23:43;25.70;99.90
27224;DHT22;14965;50.660;13.226;2023-08-21T09:26:09;25.70;99.90
27224;DHT22;14965;50.660;13.226;2023-08-21T09:28:35;25.60;99.90
27224;DHT22;14965;50.660;13.226;2023-08-21T09:31:03;25.60;99.90
27224;DHT22;14965;50.660;13.226;2023-08-21T09:33:29;25.70;99.90
27224;DHT22;14965;50.660;13.226;2023-08-21T09:35:55;25.70;99.90
27224;DHT22;14965;50.660;13.226;2023-08-21T09:38:26;25.70;99.90
27224;DHT22;14965;50.660;13.226;2023-08-21T09:40:53;25.60;99.90
27224;DHT22;14965;50.660;13.226;2023-08-21T09:43:21;25.70;99.90
27224;DHT22;14965;50.660;13.226;2023-08-21T09:45:48;25.80;99.90
27224;DHT22;14965;50.660;13.226;2023-08-21T09:48:15;25.90;99.90
27224;DHT22;14965;50.660;13.226;2023-08-21T09:50:41;26.00;99.90
27224;DHT22;14965;50.660;13.226;2023-08-21T09:53:07;26.20;99.90
27224;DHT22;14965;50.660;13.226;2023-08-21T09:55:35;26.20;99.90
27224;DHT22;14965;50.660;13.226;2023-08-21T09:58:02;26.10;99.90
27224;DHT22;14965;50.660;13.226;2023-08-21T10:00:30;25.90;99.90
27224;DHT22;14965;50.660;13.226;2023-08-21T10:02:59;26.00;99.90
27224;DHT22;14965;50.660;13.226;2023-08-21T10:05:26;26.20;99.90
27224;DHT22;14965;50.660;13.226;2023-08-21T10:07:55;26.20;99.90
27224;DHT22;14965;50.660;13.226;2023-08-21T10:10:21;26.20;99.90
27224;DHT22;14965;50.660;13.226;2023-08-21T10:12:49;26.00;99.90
27224;DHT22;14965;50.660;13.226;2023-08-21T10:15:16;25.80;99.90
27224;DHT22;14965;50.660;13.226;2023-08-21T10:17:43;25.90;99.90
27224;DHT22;14965;50.660;13.226;2023-08-21T10:20:09;26.00;99.90
27224;DHT22;14965;50.660;13.226;2023-08-21T10:22:39;26.10;99.90
27224;DHT22;14965;50.660;13.226;2023-08-21T10:25:15;25.90;99.90
27224;DHT22;14965;50.660;13.226;2023-08-21T10:27:42;25.60;99.90
27224;DHT22;14965;50.660;13.226;2023-08-21T10:30:14;25.70;99.90
27224;DHT22;14965;50.660;13.226;2023-08-21T10:32:45;25.90;99.90
27224;DHT22;14965;50.660;13.226;2023-08-21T10:35:14;26.10;99.90
27224;DHT22;14965;50.660;13.226;2023-08-21T10:38:05;26.30;99.90
27224;DHT22;14965;50.660;13.226;2023-08-21T10:40:32;26.60;99.90
27224;DHT22;14965;50.660;13.226;2023-08-21T10:42:58;26.70;99.90
27224;DHT22;14965;50.660;13.226;2023-08-21T10:45:26;26.50;99.90
27224;DHT22;14965;50.660;13.226;2023-08-21T10:47:52;26.40;99.90
27224;DHT22;14965;50.660;13.226;2023-08-21T10:50:18;26.50;99.90
27224;DHT22;14965;50.660;13.226;2023-08-21T10:52:44;26.70;99.90
27224;DHT22;14965;50.660;13.226;2023-08-21T10:55:11;27.00;99.90
27224;DHT22;14965;50.660;13.226;2023-08-21T10:57:39;27.40;99.90
27224;DHT22;14965;50.660;13.226;2023-08-21T11:00:07;27.40;99.90
27224;DHT22;14965;50.660;13.226;2023-08-21T11:02:37;27.00;99.90
27224;DHT22;14965;50.660;13.226;2023-08-21T11:05:05;26.50;99.90
27224;DHT22;14965;50.660;13.226;2023-08-21T11:07:37;26.20;99.90
27224;DHT22;14965;50.660;13.226;2023-08-21T11:10:05;25.90;99.90
27224;DHT22;14965;50.660;13.226;2023-08-21T11:12:32;26.00;99.90
27224;DHT22;14965;50.660;13.226;2023-08-21T11:14:58;26.20;99.90
27224;DHT22;14965;50.660;13.226;2023-08-21T11:17:24;26.30;99.90
27224;DHT22;14965;50.660;13.226;2023-08-21T11:19:51;26.50;99.90
27224;DHT22;14965;50.660;13.226;2023-08-21T11:22:17;26.80;99.90
27224;DHT22;14965;50.660;13.226;2023-08-21T11:24:44;27.00;99.90
27224;DHT22;14965;50.660;13.226;2023-08-21T11:27:12;27.30;99.90
27224;DHT22;14965;50.660;13.226;2023-08-21T11:29:41;27.60;99.90
27224;DHT22;14965;50.660;13.226;2023-08-21T11:32:09;27.50;99.90
27224;DHT22;14965;50.660;13.226;2023-08-21T11:34:36;27.60;99.90
27224;DHT22;14965;50.660;13.226;2023-08-21T11:37:05;27.50;99.90
27224;DHT22;14965;50.660;13.226;2023-08-21T11:39:45;27.40;99.90
27224;DHT22;14965;50.660;13.226;2023-08-21T11:42:14;27.30;99.90
27224;DHT22;14965;50.660;13.226;2023-08-21T11:44:44;27.00;99.90
27224;DHT22;14965;50.660;13.226;2023-08-21T11:47:13;27.00;99.90
27224;DHT22;14965;50.660;13.226;2023-08-21T11:49:40;27.00;99.90
27224;DHT22;14965;50.660;13.226;2023-08-21T11:52:08;27.10;99.90
27224;DHT22;14965;50.660;13.226;2023-08-21T11:54:36;27.20;99.90
27224;DHT22;14965;50.660;13.226;2023-08-21T11:57:07;27.20;99.90
27224;DHT22;14965;50.660;13.226;2023-08-21T11:59:33;27.20;99.90
27224;DHT22;14965;50.660;13.226;2023-08-21T12:02:00;26.90;99.90
27224;DHT22;14965;50.660;13.226;2023-08-21T12:04:26;26.80;99.90
27224;DHT22;14965;50.660;13.226;2023-08-21T12:06:52;26.60;99.90
27224;DHT22;14965;50.660;13.226;2023-08-21T12:09:19;26.60;99.90
27224;DHT22;14965;50.660;13.226;2023-08-21T12:11:45;26.70;99.90
27224;DHT22;14965;50.660;13.226;2023-08-21T12:14:11;26.70;99.90
27224;DHT22;14965;50.660;13.226;2023-08-21T12:16:37;26.60;99.90
27224;DHT22;14965;50.660;13.226;2023-08-21T12:19:03;26.40;99.90
27224;DHT22;14965;50.660;13.226;2023-08-21T12:21:29;26.20;99.90
27224;DHT22;14965;50.660;13.226;2023-08-21T12:23:55;26.10;99.90
27224;DHT22;14965;50.660;13.226;2023-08-21T12:26:22;25.90;99.90
27224;DHT22;14965;50.660;13.226;2023-08-21T12:28:49;25.80;99.90
27224;DHT22;14965;50.660;13.226;2023-08-21T12:31:15;25.60;99.90
27224;DHT22;14965;50.660;13.226;2023-08-21T12:33:41;25.50;99.90
27224;DHT22;14965;50.660;13.226;2023-08-21T12:36:07;25.60;99.90
27224;DHT22;14965;50.660;13.226;2023-08-21T12:38:33;25.80;99.90
27224;DHT22;14965;50.660;13.226;2023-08-21T12:40:59;26.00;99.90
27224;DHT22;14965;50.660;13.226;2023-08-21T12:43:28;26.30;99.90
27224;DHT22;14965;50.660;13.226;2023-08-21T12:45:56;26.50;99.90
27224;DHT22;14965;50.660;13.226;2023-08-21T12:48:22;26.60;99.90
27224;DHT22;14965;50.660;13.226;2023-08-21T12:50:48;26.60;99.90
27224;DHT22;14965;50.660;13.226;2023-08-21T12:53:14;26.70;99.90
27224;DHT22;14965;50.660;13.226;2023-08-21T12:55:39;26.70;99.90
27224;DHT22;14965;50.660;13.226;2023-08-21T12:58:05;26.70;99.90
27224;DHT22;14965;50.660;13.226;2023-08-21T13:00:33;26.90;99.90
27224;DHT22;14965;50.660;13.226;2023-08-21T13:02:59;27.00;99.90
27224;DHT22;14965;50.660;13.226;2023-08-21T13:05:25;27.20;99.90
27224;DHT22;14965;50.660;13.226;2023-08-21T13:07:51;27.30;99.90
27224;DHT22;14965;50.660;13.226;2023-08-21T13:10:17;27.20;99.90
27224;DHT22;14965;50.660;13.226;2023-08-21T13:12:43;27.00;99.90
27224;DHT22;14965;50.660;13.226;2023-08-21T13:15:09;27.00;99.90
27224;DHT22;14965;50.660;13.226;2023-08-21T13:17:37;27.00;99.90
27224;DHT22;14965;50.660;13.226;2023-08-21T13:20:07;26.80;99.90
27224;DHT22;14965;50.660;13.226;2023-08-21T13:22:44;26.80;99.90
27224;DHT22;14965;50.660;13.226;2023-08-21T13:25:11;26.80;99.90
27224;DHT22;14965;50.660;13.226;2023-08-21T13:27:37;26.80;99.90
27224;DHT22;14965;50.660;13.226;2023-08-21T13:30:04;26.80;99.90
27224;DHT22;14965;50.660;13.226;2023-08-21T13:32:30;26.80;99.90
27224;DHT22;14965;50.660;13.226;2023-08-21T13:34:58;26.80;99.90
27224;DHT22;14965;50.660;13.226;2023-08-21T13:37:24;26.80;99.90
27224;DHT22;14965;50.660;13.226;2023-08-21T13:39:50;26.70;99.90
27224;DHT22;14965;50.660;13.226;2023-08-21T13:42:15;26.60;99.90
27224;DHT22;14965;50.660;13.226;2023-08-21T13:44:41;26.70;99.90
27224;DHT22;14965;50.660;13.226;2023-08-21T13:47:07;26.70;99.90
27224;DHT22;14965;50.660;13.226;2023-08-21T13:49:33;26.80;99.90
27224;DHT22;14965;50.660;13.226;2023-08-21T13:52:00;26.70;99.90
27224;DHT22;14965;50.660;13.226;2023-08-21T13:54:26;26.70;99.90
27224;DHT22;14965;50.660;13.226;2023-08-21T13:56:52;26.80;99.90
27224;DHT22;14965;50.660;13.226;2023-08-21T13:59:18;26.70;99.90
27224;DHT22;14965;50.660;13.226;2023-08-21T14:01:44;26.60;99.90
27224;DHT22;14965;50.660;13.226;2023-08-21T14:04:10;26.50;99.90
27224;DHT22;14965;50.660;13.226;2023-08-21T14:06:36;26.50;99.90
27224;DHT22;14965;50.660;13.226;2023-08-21T14:09:03;26.60;99.90
27224;DHT22;14965;50.660;13.226;2023-08-21T14:11:29;26.60;99.90
27224;DHT22;14965;50.660;13.226;2023-08-21T14:13:55;26.60;99.90
27224;DHT22;14965;50.660;13.226;2023-08-21T14:16:21;26.50;99.90
27224;DHT22;14965;50.660;13.226;2023-08-21T14:18:47;26.50;99.90
27224;DHT22;14965;50.660;13.226;2023-08-21T14:21:13;26.50;99.90
27224;DHT22;14965;50.660;13.226;2023-08-21T14:23:39;26.50;99.90
27224;DHT22;14965;50.660;13.226;2023-08-21T14:26:06;26.30;99.90
27224;DHT22;14965;50.660;13.226;2023-08-21T14:28:32;26.10;99.90
27224;DHT22;14965;50.660;13.226;2023-08-21T14:30:58;26.00;99.90
27224;DHT22;14965;50.660;13.226;2023-08-21T14:33:24;26.10;99.90
27224;DHT22;14965;50.660;13.226;2023-08-21T14:35:49;26.10;99.90
27224;DHT22;14965;50.660;13.226;2023-08-21T14:38:16;26.10;99.90
27224;DHT22;14965;50.660;13.226;2023-08-21T14:40:42;26.20;99.90
27224;DHT22;14965;50.660;13.226;2023-08-21T14:43:09;26.30;99.90
27224;DHT22;14965;50.660;13.226;2023-08-21T14:45:35;26.30;99.90
27224;DHT22;14965;50.660;13.226;2023-08-21T14:48:02;26.20;99.90
27224;DHT22;14965;50.660;13.226;2023-08-21T14:50:29;26.20;99.90
27224;DHT22;14965;50.660;13.226;2023-08-21T14:52:55;26.10;99.90
27224;DHT22;14965;50.660;13.226;2023-08-21T14:55:21;26.00;99.90
27224;DHT22;14965;50.660;13.226;2023-08-21T14:57:46;26.00;99.90
27224;DHT22;14965;50.660;13.226;2023-08-21T15:00:15;26.00;99.90
27224;DHT22;14965;50.660;13.226;2023-08-21T15:02:40;26.00;99.90
27224;DHT22;14965;50.660;13.226;2023-08-21T15:05:07;26.00;99.90
27224;DHT22;14965;50.660;13.226;2023-08-21T15:07:33;25.90;99.90
27224;DHT22;14965;50.660;13.226;2023-08-21T15:09:59;25.90;99.90
27224;DHT22;14965;50.660;13.226;2023-08-21T15:12:25;25.90;99.90
27224;DHT22;14965;50.660;13.226;2023-08-21T15:14:51;25.90;99.90
27224;DHT22;14965;50.660;13.226;2023-08-21T15:17:19;25.90;99.90
27224;DHT22;14965;50.660;13.226;2023-08-21T15:19:46;25.80;99.90
27224;DHT22;14965;50.660;13.226;2023-08-21T15:22:13;25.70;99.90